sensor_id;sensor_type;location;lat;lon;timestamp;pressure;altitude;pressure_sealevel;temperature;humidity
54512;BME280;40419;47.438;19.026;2023-04-26T00:00:51;99122.25;;;8.49;100.00
54512;BME280;40419;47.438;19.026;2023-04-26T00:03:20;99126.19;;;8.67;100.00
54512;BME280;40419;47.438;19.026;2023-04-26T00:05:47;99122.25;;;8.76;100.00
54512;BME280;40419;47.438;19.026;2023-04-26T00:08:15;99131.78;;;8.85;100.00
54512;BME280;40419;47.438;19.026;2023-04-26T00:10:43;99124.13;;;8.76;100.00
54512;BME280;40419;47.438;19.026;2023-04-26T00:13:11;99130.53;;;8.81;100.00
54512;BME280;40419;47.438;19.026;2023-04-26T00:15:42;99131.78;;;8.72;100.00
54512;BME280;40419;47.438;19.026;2023-04-26T00:18:08;99138.63;;;8.68;100.00
54512;BME280;40419;47.438;19.026;2023-04-26T00:20:33;99135.53;;;8.64;100.00
54512;BME280;40419;47.438;19.026;2023-04-26T00:23:01;99131.78;;;8.59;100.00
54512;BME280;40419;47.438;19.026;2023-04-26T00:25:29;99135.13;;;8.74;100.00
54512;BME280;40419;47.438;19.026;2023-04-26T00:28:00;99146.53;;;8.76;100.00
54512;BME280;40419;47.438;19.026;2023-04-26T00:30:28;99157.75;;;8.73;100.00
54512;BME280;40419;47.438;19.026;2023-04-26T00:32:53;99147.38;;;8.83;100.00
54512;BME280;40419;47.438;19.026;2023-04-26T00:35:21;99150.47;;;8.60;100.00
54512;BME280;40419;47.438;19.026;2023-04-26T00:37:49;99146.34;;;8.58;100.00
54512;BME280;40419;47.438;19.026;2023-04-26T00:40:15;99147.78;;;8.67;100.00
54512;BME280;40419;47.438;19.026;2023-04-26T00:42:45;99149.44;;;8.68;100.00
54512;BME280;40419;47.438;19.026;2023-04-26T00:45:14;99153.81;;;8.69;100.00
54512;BME280;40419;47.438;19.026;2023-04-26T00:47:42;99157.13;;;8.58;100.00
54512;BME280;40419;47.438;19.026;2023-04-26T00:50:10;99154.81;;;8.68;100.00
54512;BME280;40419;47.438;19.026;2023-04-26T00:52:38;99150.66;;;8.39;100.00
54512;BME280;40419;47.438;19.026;2023-04-26T00:55:07;99162.06;;;8.34;100.00
54512;BME280;40419;47.438;19.026;2023-04-26T00:57:35;99158.75;;;8.39;100.00
54512;BME280;40419;47.438;19.026;2023-04-26T01:00:03;99151.72;;;8.44;100.00
54512;BME280;40419;47.438;19.026;2023-04-26T01:02:32;99150.91;;;8.50;100.00
54512;BME280;40419;47.438;19.026;2023-04-26T01:05:00;99153.41;;;8.65;100.00
54512;BME280;40419;47.438;19.026;2023-04-26T01:07:28;99162.94;;;8.61;99.36
54512;BME280;40419;47.438;19.026;2023-04-26T01:09:54;99160.84;;;8.57;99.52
54512;BME280;40419;47.438;19.026;2023-04-26T01:12:21;99164.75;;;8.27;100.00
54512;BME280;40419;47.438;19.026;2023-04-26T01:14:48;99160.00;;;8.43;99.50
54512;BME280;40419;47.438;19.026;2023-04-26T01:17:16;99173.72;;;8.48;97.72
54512;BME280;40419;47.438;19.026;2023-04-26T01:19:48;99170.41;;;8.52;97.63
54512;BME280;40419;47.438;19.026;2023-04-26T01:22:13;99171.66;;;8.57;97.06
54512;BME280;40419;47.438;19.026;2023-04-26T01:24:47;99182.22;;;8.45;97.81
54512;BME280;40419;47.438;19.026;2023-04-26T01:27:15;99178.91;;;8.49;97.02
54512;BME280;40419;47.438;19.026;2023-04-26T01:29:43;99186.16;;;8.56;96.58
54512;BME280;40419;47.438;19.026;2023-04-26T01:32:15;99182.44;;;8.50;96.79
54512;BME280;40419;47.438;19.026;2023-04-26T01:34:45;99181.56;;;8.36;98.00
54512;BME280;40419;47.438;19.026;2023-04-26T01:37:11;99192.56;;;8.41;96.87
54512;BME280;40419;47.438;19.026;2023-04-26T01:39:43;99194.91;;;8.58;95.21
54512;BME280;40419;47.438;19.026;2023-04-26T01:42:10;99190.75;;;8.48;96.80
54512;BME280;40419;47.438;19.026;2023-04-26T01:44:38;99192.84;;;8.53;95.23
54512;BME280;40419;47.438;19.026;2023-04-26T01:47:04;99195.94;;;8.50;95.71
54512;BME280;40419;47.438;19.026;2023-04-26T01:49:32;99200.28;;;8.44;95.50
54512;BME280;40419;47.438;19.026;2023-04-26T01:52:00;99203.78;;;8.38;95.87
54512;BME280;40419;47.438;19.026;2023-04-26T01:54:26;99204.34;;;8.20;97.17
54512;BME280;40419;47.438;19.026;2023-04-26T01:56:51;99213.47;;;8.19;97.10
54512;BME280;40419;47.438;19.026;2023-04-26T01:59:19;99221.81;;;8.38;95.80
54512;BME280;40419;47.438;19.026;2023-04-26T02:01:50;99221.88;;;8.51;94.35
54512;BME280;40419;47.438;19.026;2023-04-26T02:04:20;99221.41;;;8.41;95.26
54512;BME280;40419;47.438;19.026;2023-04-26T02:06:48;99214.53;;;8.25;95.62
54512;BME280;40419;47.438;19.026;2023-04-26T02:09:17;99218.88;;;8.19;95.71
54512;BME280;40419;47.438;19.026;2023-04-26T02:11:43;99225.06;;;8.13;97.01
54512;BME280;40419;47.438;19.026;2023-04-26T02:14:08;99217.59;;;8.08;97.41
54512;BME280;40419;47.438;19.026;2023-04-26T02:16:38;99224.47;;;8.24;95.44
54512;BME280;40419;47.438;19.026;2023-04-26T02:19:07;99218.09;;;8.32;94.77
54512;BME280;40419;47.438;19.026;2023-04-26T02:21:55;99222.22;;;8.28;94.41
54512;BME280;40419;47.438;19.026;2023-04-26T02:24:25;99220.50;;;8.13;95.36
54512;BME280;40419;47.438;19.026;2023-04-26T02:26:51;99234.19;;;8.12;95.34
54512;BME280;40419;47.438;19.026;2023-04-26T02:29:19;99234.63;;;8.15;95.47
54512;BME280;40419;47.438;19.026;2023-04-26T02:31:46;99229.00;;;8.10;95.16
54512;BME280;40419;47.438;19.026;2023-04-26T02:34:17;99223.13;;;7.93;96.96
54512;BME280;40419;47.438;19.026;2023-04-26T02:36:43;99231.44;;;7.98;96.56
54512;BME280;40419;47.438;19.026;2023-04-26T02:39:08;99219.00;;;7.97;95.45
54512;BME280;40419;47.438;19.026;2023-04-26T02:41:34;99236.25;;;8.03;94.77
54512;BME280;40419;47.438;19.026;2023-04-26T02:44:02;99230.88;;;8.16;94.19
54512;BME280;40419;47.438;19.026;2023-04-26T02:46:30;99230.25;;;8.08;93.86
54512;BME280;40419;47.438;19.026;2023-04-26T02:48:58;99228.31;;;7.95;94.02
54512;BME280;40419;47.438;19.026;2023-04-26T02:51:23;99231.06;;;8.15;91.99
54512;BME280;40419;47.438;19.026;2023-04-26T02:53:52;99246.84;;;8.11;92.22
54512;BME280;40419;47.438;19.026;2023-04-26T02:56:17;99237.94;;;8.11;91.85
54512;BME280;40419;47.438;19.026;2023-04-26T02:58:45;99237.94;;;8.11;91.81
54512;BME280;40419;47.438;19.026;2023-04-26T03:01:14;99241.88;;;8.15;91.86
54512;BME280;40419;47.438;19.026;2023-04-26T03:03:41;99243.94;;;8.20;91.07
54512;BME280;40419;47.438;19.026;2023-04-26T03:06:06;99253.25;;;8.04;92.34
54512;BME280;40419;47.438;19.026;2023-04-26T03:08:34;99259.91;;;8.08;91.96
54512;BME280;40419;47.438;19.026;2023-04-26T03:11:03;99261.06;;;7.92;92.52
54512;BME280;40419;47.438;19.026;2023-04-26T03:13:29;99271.44;;;7.95;92.54
54512;BME280;40419;47.438;19.026;2023-04-26T03:15:57;99268.06;;;7.79;93.52
54512;BME280;40419;47.438;19.026;2023-04-26T03:18:23;99269.47;;;7.75;94.11
54512;BME280;40419;47.438;19.026;2023-04-26T03:20:51;99286.06;;;7.72;94.41
54512;BME280;40419;47.438;19.026;2023-04-26T03:23:19;99277.81;;;7.80;92.92
54512;BME280;40419;47.438;19.026;2023-04-26T03:25:51;99282.34;;;7.80;94.11
54512;BME280;40419;47.438;19.026;2023-04-26T03:28:17;99289.56;;;7.73;93.35
54512;BME280;40419;47.438;19.026;2023-04-26T03:30:43;99282.19;;;7.53;95.08
54512;BME280;40419;47.438;19.026;2023-04-26T03:33:08;99295.31;;;7.63;94.31
54512;BME280;40419;47.438;19.026;2023-04-26T03:35:34;99297.03;;;7.42;95.43
54512;BME280;40419;47.438;19.026;2023-04-26T03:38:02;99304.53;;;7.75;92.15
54512;BME280;40419;47.438;19.026;2023-04-26T03:40:31;99303.25;;;7.71;93.53
54512;BME280;40419;47.438;19.026;2023-04-26T03:42:58;99293.84;;;7.60;93.49
54512;BME280;40419;47.438;19.026;2023-04-26T03:45:26;99290.34;;;7.60;94.04
54512;BME280;40419;47.438;19.026;2023-04-26T03:47:54;99293.31;;;7.72;92.70
54512;BME280;40419;47.438;19.026;2023-04-26T03:50:25;99291.88;;;7.76;91.70
54512;BME280;40419;47.438;19.026;2023-04-26T03:52:54;99295.00;;;7.79;92.47
54512;BME280;40419;47.438;19.026;2023-04-26T03:55:19;99289.84;;;7.85;91.38
54512;BME280;40419;47.438;19.026;2023-04-26T03:57:49;99291.34;;;7.94;89.81
54512;BME280;40419;47.438;19.026;2023-04-26T04:00:19;99290.22;;;8.78;85.03
54512;BME280;40419;47.438;19.026;2023-04-26T04:02:49;99306.44;;;9.65;78.13
54512;BME280;40419;47.438;19.026;2023-04-26T04:05:22;99301.97;;;9.98;75.59
54512;BME280;40419;47.438;19.026;2023-04-26T04:07:51;99310.75;;;10.58;72.52
54512;BME280;40419;47.438;19.026;2023-04-26T04:10:21;99314.81;;;10.36;73.60
54512;BME280;40419;47.438;19.026;2023-04-26T04:12:50;99320.94;;;9.84;73.94
54512;BME280;40419;47.438;19.026;2023-04-26T04:15:22;99327.38;;;9.90;74.94
54512;BME280;40419;47.438;19.026;2023-04-26T04:17:48;99322.03;;;9.63;75.44
54512;BME280;40419;47.438;19.026;2023-04-26T04:20:16;99328.47;;;9.49;75.72
54512;BME280;40419;47.438;19.026;2023-04-26T04:22:42;99317.47;;;9.50;75.53
54512;BME280;40419;47.438;19.026;2023-04-26T04:25:08;99318.28;;;9.71;74.73
54512;BME280;40419;47.438;19.026;2023-04-26T04:27:38;99323.44;;;9.79;73.37
54512;BME280;40419;47.438;19.026;2023-04-26T04:30:12;99337.19;;;9.78;73.68
54512;BME280;40419;47.438;19.026;2023-04-26T04:32:40;99351.56;;;9.65;74.59
54512;BME280;40419;47.438;19.026;2023-04-26T04:35:12;99345.31;;;9.51;75.80
54512;BME280;40419;47.438;19.026;2023-04-26T04:37:39;99354.47;;;9.23;79.94
54512;BME280;40419;47.438;19.026;2023-04-26T04:40:06;99356.34;;;9.22;80.24
54512;BME280;40419;47.438;19.026;2023-04-26T04:42:34;99371.72;;;9.29;81.53
54512;BME280;40419;47.438;19.026;2023-04-26T04:45:04;99369.78;;;8.96;82.94
54512;BME280;40419;47.438;19.026;2023-04-26T04:47:34;99370.06;;;9.21;84.01
54512;BME280;40419;47.438;19.026;2023-04-26T04:50:06;99372.13;;;9.46;84.65
54512;BME280;40419;47.438;19.026;2023-04-26T04:52:34;99376.88;;;9.23;84.33
54512;BME280;40419;47.438;19.026;2023-04-26T04:55:03;99379.41;;;9.32;85.99
54512;BME280;40419;47.438;19.026;2023-04-26T04:57:29;99388.56;;;9.44;86.55
54512;BME280;40419;47.438;19.026;2023-04-26T04:59:55;99382.53;;;9.55;84.99
54512;BME280;40419;47.438;19.026;2023-04-26T05:02:21;99394.16;;;9.36;84.90
54512;BME280;40419;47.438;19.026;2023-04-26T05:04:49;99387.66;;;9.10;87.28
54512;BME280;40419;47.438;19.026;2023-04-26T05:07:17;99389.56;;;9.23;87.33
54512;BME280;40419;47.438;19.026;2023-04-26T05:09:43;99396.75;;;8.89;89.03
54512;BME280;40419;47.438;19.026;2023-04-26T05:12:12;99397.66;;;9.10;87.98
54512;BME280;40419;47.438;19.026;2023-04-26T05:14:40;99400.38;;;9.16;87.71
54512;BME280;40419;47.438;19.026;2023-04-26T05:17:06;99398.09;;;9.27;85.85
54512;BME280;40419;47.438;19.026;2023-04-26T05:19:34;99401.84;;;9.39;84.89
54512;BME280;40419;47.438;19.026;2023-04-26T05:22:00;99407.47;;;9.44;84.13
54512;BME280;40419;47.438;19.026;2023-04-26T05:24:29;99404.53;;;9.19;83.76
54512;BME280;40419;47.438;19.026;2023-04-26T05:26:57;99407.25;;;9.32;84.22
54512;BME280;40419;47.438;19.026;2023-04-26T05:29:32;99412.44;;;9.34;83.87
54512;BME280;40419;47.438;19.026;2023-04-26T05:32:07;99399.16;;;9.52;83.91
54512;BME280;40419;47.438;19.026;2023-04-26T05:34:39;99418.06;;;9.46;81.94
54512;BME280;40419;47.438;19.026;2023-04-26T05:37:08;99422.22;;;9.42;79.48
54512;BME280;40419;47.438;19.026;2023-04-26T05:39:36;99422.25;;;9.48;79.18
54512;BME280;40419;47.438;19.026;2023-04-26T05:42:02;99432.44;;;9.73;81.04
54512;BME280;40419;47.438;19.026;2023-04-26T05:44:33;99432.66;;;9.85;78.12
54512;BME280;40419;47.438;19.026;2023-04-26T05:47:03;99431.19;;;9.82;73.63
54512;BME280;40419;47.438;19.026;2023-04-26T05:49:29;99433.22;;;10.07;74.05
54512;BME280;40419;47.438;19.026;2023-04-26T05:51:59;99433.69;;;9.90;71.88
54512;BME280;40419;47.438;19.026;2023-04-26T05:54:32;99440.97;;;9.83;70.12
54512;BME280;40419;47.438;19.026;2023-04-26T05:56:58;99443.03;;;10.01;68.30
54512;BME280;40419;47.438;19.026;2023-04-26T05:59:25;99447.16;;;10.17;70.20
54512;BME280;40419;47.438;19.026;2023-04-26T06:01:57;99442.22;;;9.94;68.14
54512;BME280;40419;47.438;19.026;2023-04-26T06:04:23;99439.88;;;10.24;65.19
54512;BME280;40419;47.438;19.026;2023-04-26T06:07:00;99448.03;;;9.78;64.59
54512;BME280;40419;47.438;19.026;2023-04-26T06:09:30;99443.66;;;10.03;65.10
54512;BME280;40419;47.438;19.026;2023-04-26T06:11:58;99445.94;;;10.13;63.14
54512;BME280;40419;47.438;19.026;2023-04-26T06:14:24;99457.19;;;10.03;61.97
54512;BME280;40419;47.438;19.026;2023-04-26T06:16:51;99461.94;;;10.21;63.40
54512;BME280;40419;47.438;19.026;2023-04-26T06:19:23;99470.25;;;10.26;61.19
54512;BME280;40419;47.438;19.026;2023-04-26T06:21:51;99467.38;;;10.08;58.71
54512;BME280;40419;47.438;19.026;2023-04-26T06:24:19;99459.69;;;9.71;58.12
54512;BME280;40419;47.438;19.026;2023-04-26T06:26:44;99461.16;;;9.87;59.44
54512;BME280;40419;47.438;19.026;2023-04-26T06:29:10;99459.47;;;10.06;59.24
54512;BME280;40419;47.438;19.026;2023-04-26T06:31:36;99454.47;;;10.10;58.75
54512;BME280;40419;47.438;19.026;2023-04-26T06:34:01;99458.44;;;9.74;59.74
54512;BME280;40419;47.438;19.026;2023-04-26T06:36:27;99457.56;;;10.07;60.02
54512;BME280;40419;47.438;19.026;2023-04-26T06:38:56;99463.00;;;9.87;58.99
54512;BME280;40419;47.438;19.026;2023-04-26T06:41:21;99454.25;;;10.18;60.51
54512;BME280;40419;47.438;19.026;2023-04-26T06:43:47;99463.41;;;10.17;59.51
54512;BME280;40419;47.438;19.026;2023-04-26T06:46:20;99459.84;;;10.50;58.82
54512;BME280;40419;47.438;19.026;2023-04-26T06:48:54;99462.94;;;10.60;55.74
54512;BME280;40419;47.438;19.026;2023-04-26T06:51:23;99469.22;;;10.27;55.70
54512;BME280;40419;47.438;19.026;2023-04-26T06:53:51;99463.41;;;10.04;55.70
54512;BME280;40419;47.438;19.026;2023-04-26T06:56:19;99480.88;;;10.21;56.80
54512;BME280;40419;47.438;19.026;2023-04-26T06:59:04;99471.72;;;10.29;57.93
54512;BME280;40419;47.438;19.026;2023-04-26T07:01:33;99489.03;;;10.35;55.22
54512;BME280;40419;47.438;19.026;2023-04-26T07:04:00;99475.47;;;10.41;54.76
54512;BME280;40419;47.438;19.026;2023-04-26T07:06:28;99473.81;;;10.20;54.77
54512;BME280;40419;47.438;19.026;2023-04-26T07:08:54;99485.88;;;10.31;55.69
54512;BME280;40419;47.438;19.026;2023-04-26T07:11:20;99491.69;;;10.28;55.15
54512;BME280;40419;47.438;19.026;2023-04-26T07:13:50;99488.59;;;10.38;56.08
54512;BME280;40419;47.438;19.026;2023-04-26T07:16:18;99483.38;;;10.43;55.07
54512;BME280;40419;47.438;19.026;2023-04-26T07:18:44;99482.34;;;10.17;55.64
54512;BME280;40419;47.438;19.026;2023-04-26T07:21:14;99496.28;;;10.27;54.35
54512;BME280;40419;47.438;19.026;2023-04-26T07:23:40;99485.69;;;10.33;55.26
54512;BME280;40419;47.438;19.026;2023-04-26T07:26:05;99492.28;;;10.63;56.22
54512;BME280;40419;47.438;19.026;2023-04-26T07:28:33;99502.53;;;10.41;55.04
54512;BME280;40419;47.438;19.026;2023-04-26T07:30:59;99497.50;;;10.65;54.73
54512;BME280;40419;47.438;19.026;2023-04-26T07:33:27;99494.03;;;11.03;56.13
54512;BME280;40419;47.438;19.026;2023-04-26T07:35:54;99488.13;;;11.20;53.38
54512;BME280;40419;47.438;19.026;2023-04-26T07:38:21;99490.47;;;11.48;51.22
54512;BME280;40419;47.438;19.026;2023-04-26T07:40:49;99499.72;;;11.33;47.29
54512;BME280;40419;47.438;19.026;2023-04-26T07:43:18;99507.34;;;11.11;47.37
54512;BME280;40419;47.438;19.026;2023-04-26T07:45:43;99514.41;;;11.19;46.67
54512;BME280;40419;47.438;19.026;2023-04-26T07:48:09;99525.25;;;11.19;45.19
54512;BME280;40419;47.438;19.026;2023-04-26T07:50:37;99518.63;;;11.02;48.58
54512;BME280;40419;47.438;19.026;2023-04-26T07:53:02;99520.31;;;11.03;47.93
54512;BME280;40419;47.438;19.026;2023-04-26T07:55:31;99518.88;;;10.87;45.85
54512;BME280;40419;47.438;19.026;2023-04-26T07:57:58;99522.81;;;10.97;45.62
54512;BME280;40419;47.438;19.026;2023-04-26T08:00:24;99521.34;;;11.02;46.78
54512;BME280;40419;47.438;19.026;2023-04-26T08:02:50;99515.69;;;11.03;45.48
54512;BME280;40419;47.438;19.026;2023-04-26T08:05:17;99523.56;;;11.25;46.57
54512;BME280;40419;47.438;19.026;2023-04-26T08:07:43;99520.47;;;11.08;47.03
54512;BME280;40419;47.438;19.026;2023-04-26T08:10:09;99517.84;;;10.88;47.81
54512;BME280;40419;47.438;19.026;2023-04-26T08:12:36;99521.44;;;11.27;47.71
54512;BME280;40419;47.438;19.026;2023-04-26T08:15:08;99539.19;;;11.23;47.27
54512;BME280;40419;47.438;19.026;2023-04-26T08:17:34;99536.47;;;11.23;47.63
54512;BME280;40419;47.438;19.026;2023-04-26T08:19:59;99541.06;;;11.15;47.47
54512;BME280;40419;47.438;19.026;2023-04-26T08:22:25;99540.84;;;11.17;47.36
54512;BME280;40419;47.438;19.026;2023-04-26T08:24:54;99534.31;;;11.38;46.77
54512;BME280;40419;47.438;19.026;2023-04-26T08:27:20;99553.84;;;11.08;46.82
54512;BME280;40419;47.438;19.026;2023-04-26T08:29:45;99549.91;;;10.91;48.29
54512;BME280;40419;47.438;19.026;2023-04-26T08:32:11;99545.47;;;11.16;46.62
54512;BME280;40419;47.438;19.026;2023-04-26T08:34:37;99555.56;;;11.41;45.81
54512;BME280;40419;47.438;19.026;2023-04-26T08:37:02;99545.59;;;11.35;44.98
54512;BME280;40419;47.438;19.026;2023-04-26T08:39:29;99536.66;;;11.28;44.77
54512;BME280;40419;47.438;19.026;2023-04-26T08:42:04;99558.34;;;11.66;44.19
54512;BME280;40419;47.438;19.026;2023-04-26T08:44:33;99543.09;;;11.72;43.44
54512;BME280;40419;47.438;19.026;2023-04-26T08:47:05;99558.22;;;11.55;44.08
54512;BME280;40419;47.438;19.026;2023-04-26T08:49:40;99545.78;;;11.40;44.15
54512;BME280;40419;47.438;19.026;2023-04-26T08:52:11;99551.34;;;11.52;44.11
54512;BME280;40419;47.438;19.026;2023-04-26T08:54:41;99566.69;;;11.72;43.82
54512;BME280;40419;47.438;19.026;2023-04-26T08:57:09;99559.53;;;11.77;43.50
54512;BME280;40419;47.438;19.026;2023-04-26T08:59:36;99554.63;;;11.99;42.80
54512;BME280;40419;47.438;19.026;2023-04-26T09:02:06;99571.56;;;11.95;42.43
54512;BME280;40419;47.438;19.026;2023-04-26T09:04:32;99558.91;;;12.14;43.07
54512;BME280;40419;47.438;19.026;2023-04-26T09:07:02;99569.75;;;12.14;43.70
54512;BME280;40419;47.438;19.026;2023-04-26T09:09:34;99553.91;;;12.11;42.46
54512;BME280;40419;47.438;19.026;2023-04-26T09:12:08;99555.28;;;11.95;42.29
54512;BME280;40419;47.438;19.026;2023-04-26T09:14:38;99550.72;;;12.20;43.46
54512;BME280;40419;47.438;19.026;2023-04-26T09:17:03;99562.75;;;12.56;43.84
54512;BME280;40419;47.438;19.026;2023-04-26T09:19:40;99559.81;;;12.58;43.89
54512;BME280;40419;47.438;19.026;2023-04-26T09:22:09;99546.66;;;12.55;42.55
54512;BME280;40419;47.438;19.026;2023-04-26T09:24:50;99559.41;;;12.54;41.51
54512;BME280;40419;47.438;19.026;2023-04-26T09:27:19;99559.47;;;12.22;41.48
54512;BME280;40419;47.438;19.026;2023-04-26T09:35:37;99566.34;;;12.25;41.64
54512;BME280;40419;47.438;19.026;2023-04-26T09:38:08;99562.09;;;11.72;42.22
54512;BME280;40419;47.438;19.026;2023-04-26T09:40:35;99565.72;;;11.91;41.78
54512;BME280;40419;47.438;19.026;2023-04-26T09:43:02;99571.44;;;12.15;42.25
54512;BME280;40419;47.438;19.026;2023-04-26T09:45:29;99560.09;;;12.25;41.44
54512;BME280;40419;47.438;19.026;2023-04-26T09:48:13;99573.06;;;12.48;41.39
54512;BME280;40419;47.438;19.026;2023-04-26T09:50:42;99559.63;;;12.53;42.04
54512;BME280;40419;47.438;19.026;2023-04-26T09:53:12;99568.88;;;12.70;40.88
54512;BME280;40419;47.438;19.026;2023-04-26T09:55:49;99545.22;;;12.02;41.26
54512;BME280;40419;47.438;19.026;2023-04-26T09:58:19;99543.69;;;11.74;42.44
54512;BME280;40419;47.438;19.026;2023-04-26T10:00:51;99553.59;;;12.00;42.51
54512;BME280;40419;47.438;19.026;2023-04-26T10:03:21;99541.69;;;12.27;42.48
54512;BME280;40419;47.438;19.026;2023-04-26T10:05:47;99548.03;;;12.14;41.24
54512;BME280;40419;47.438;19.026;2023-04-26T10:08:17;99559.69;;;12.71;41.46
54512;BME280;40419;47.438;19.026;2023-04-26T10:10:43;99567.31;;;12.05;40.57
54512;BME280;40419;47.438;19.026;2023-04-26T10:13:14;99563.09;;;11.78;39.54
54512;BME280;40419;47.438;19.026;2023-04-26T10:15:40;99556.75;;;11.91;40.80
54512;BME280;40419;47.438;19.026;2023-04-26T10:18:07;99554.69;;;12.18;38.94
54512;BME280;40419;47.438;19.026;2023-04-26T10:20:33;99564.44;;;12.51;38.36
54512;BME280;40419;47.438;19.026;2023-04-26T10:23:12;99548.50;;;12.61;37.58
54512;BME280;40419;47.438;19.026;2023-04-26T10:25:43;99555.44;;;12.75;37.44
54512;BME280;40419;47.438;19.026;2023-04-26T10:28:08;99556.16;;;12.20;37.84
54512;BME280;40419;47.438;19.026;2023-04-26T10:30:59;99552.09;;;12.30;38.42
54512;BME280;40419;47.438;19.026;2023-04-26T10:33:32;99552.59;;;12.89;38.37
54512;BME280;40419;47.438;19.026;2023-04-26T10:36:06;99562.34;;;13.34;39.14
54512;BME280;40419;47.438;19.026;2023-04-26T10:38:41;99557.94;;;12.77;39.46
54512;BME280;40419;47.438;19.026;2023-04-26T10:41:29;99576.22;;;12.45;40.27
54512;BME280;40419;47.438;19.026;2023-04-26T10:43:59;99568.53;;;11.78;42.68
54512;BME280;40419;47.438;19.026;2023-04-26T10:49:12;99566.50;;;12.30;39.70
54512;BME280;40419;47.438;19.026;2023-04-26T10:51:38;99574.44;;;12.57;38.85
54512;BME280;40419;47.438;19.026;2023-04-26T10:54:03;99563.22;;;12.90;40.60
54512;BME280;40419;47.438;19.026;2023-04-26T11:01:38;99560.66;;;13.33;38.74
54512;BME280;40419;47.438;19.026;2023-04-26T11:04:07;99569.97;;;12.88;40.80
54512;BME280;40419;47.438;19.026;2023-04-26T11:06:56;99569.06;;;12.50;41.80
54512;BME280;40419;47.438;19.026;2023-04-26T11:09:40;99565.19;;;12.39;41.59
54512;BME280;40419;47.438;19.026;2023-04-26T11:12:13;99567.16;;;12.26;41.87
54512;BME280;40419;47.438;19.026;2023-04-26T11:14:44;99574.03;;;12.28;41.19
54512;BME280;40419;47.438;19.026;2023-04-26T11:17:15;99570.16;;;12.17;40.43
54512;BME280;40419;47.438;19.026;2023-04-26T11:19:45;99566.69;;;12.35;39.45
54512;BME280;40419;47.438;19.026;2023-04-26T11:22:11;99566.00;;;12.65;38.67
54512;BME280;40419;47.438;19.026;2023-04-26T11:24:43;99573.66;;;12.50;38.60
54512;BME280;40419;47.438;19.026;2023-04-26T11:27:11;99578.31;;;12.43;38.78
54512;BME280;40419;47.438;19.026;2023-04-26T11:29:39;99560.81;;;11.75;40.43
54512;BME280;40419;47.438;19.026;2023-04-26T11:32:07;99567.88;;;11.82;41.21
54512;BME280;40419;47.438;19.026;2023-04-26T11:37:01;99589.66;;;11.62;39.92
54512;BME280;40419;47.438;19.026;2023-04-26T11:39:30;99574.41;;;11.68;39.93
54512;BME280;40419;47.438;19.026;2023-04-26T11:44:34;99582.31;;;11.69;39.00
54512;BME280;40419;47.438;19.026;2023-04-26T11:47:09;99579.91;;;12.25;38.08
54512;BME280;40419;47.438;19.026;2023-04-26T11:49:38;99583.66;;;12.24;37.47
54512;BME280;40419;47.438;19.026;2023-04-26T11:52:09;99569.94;;;12.19;37.65
54512;BME280;40419;47.438;19.026;2023-04-26T11:54:40;99568.59;;;12.03;38.18
54512;BME280;40419;47.438;19.026;2023-04-26T11:57:14;99569.59;;;12.09;37.79
54512;BME280;40419;47.438;19.026;2023-04-26T11:59:45;99570.75;;;11.94;39.31
54512;BME280;40419;47.438;19.026;2023-04-26T12:02:11;99585.78;;;11.90;39.00
54512;BME280;40419;47.438;19.026;2023-04-26T12:04:41;99578.00;;;12.00;40.78
54512;BME280;40419;47.438;19.026;2023-04-26T12:07:09;99589.84;;;12.06;38.61
54512;BME280;40419;47.438;19.026;2023-04-26T12:09:39;99574.59;;;12.12;38.80
54512;BME280;40419;47.438;19.026;2023-04-26T12:12:07;99589.91;;;12.56;37.92
54512;BME280;40419;47.438;19.026;2023-04-26T12:14:39;99578.75;;;12.65;37.51
54512;BME280;40419;47.438;19.026;2023-04-26T12:17:07;99572.03;;;12.42;37.57
54512;BME280;40419;47.438;19.026;2023-04-26T12:19:36;99567.06;;;12.83;40.83
54512;BME280;40419;47.438;19.026;2023-04-26T12:22:05;99565.38;;;12.63;40.00
54512;BME280;40419;47.438;19.026;2023-04-26T12:24:31;99563.97;;;12.61;38.66
54512;BME280;40419;47.438;19.026;2023-04-26T12:27:04;99568.00;;;12.26;39.09
54512;BME280;40419;47.438;19.026;2023-04-26T12:29:33;99574.81;;;12.35;38.88
54512;BME280;40419;47.438;19.026;2023-04-26T12:31:59;99565.41;;;12.38;39.00
54512;BME280;40419;47.438;19.026;2023-04-26T12:34:27;99584.19;;;12.39;39.21
54512;BME280;40419;47.438;19.026;2023-04-26T12:36:53;99580.59;;;12.14;39.40
54512;BME280;40419;47.438;19.026;2023-04-26T12:39:22;99583.81;;;12.04;37.78
54512;BME280;40419;47.438;19.026;2023-04-26T12:41:50;99580.66;;;12.07;38.93
54512;BME280;40419;47.438;19.026;2023-04-26T12:44:16;99589.53;;;11.89;39.91
54512;BME280;40419;47.438;19.026;2023-04-26T12:46:42;99589.16;;;12.17;38.23
54512;BME280;40419;47.438;19.026;2023-04-26T12:49:07;99587.19;;;11.99;39.58
54512;BME280;40419;47.438;19.026;2023-04-26T12:51:33;99586.44;;;11.79;39.18
54512;BME280;40419;47.438;19.026;2023-04-26T12:53:58;99578.56;;;12.09;40.01
54512;BME280;40419;47.438;19.026;2023-04-26T12:56:24;99585.09;;;12.01;39.61
54512;BME280;40419;47.438;19.026;2023-04-26T12:58:50;99590.44;;;11.76;41.06
54512;BME280;40419;47.438;19.026;2023-04-26T13:01:16;99596.91;;;11.75;42.18
54512;BME280;40419;47.438;19.026;2023-04-26T13:03:46;99597.03;;;11.94;41.20
54512;BME280;40419;47.438;19.026;2023-04-26T13:06:14;99605.44;;;11.79;40.68
54512;BME280;40419;47.438;19.026;2023-04-26T13:08:42;99598.13;;;12.18;40.11
54512;BME280;40419;47.438;19.026;2023-04-26T13:11:07;99591.59;;;12.26;40.63
54512;BME280;40419;47.438;19.026;2023-04-26T13:13:33;99608.63;;;12.08;39.65
54512;BME280;40419;47.438;19.026;2023-04-26T13:16:00;99612.19;;;12.08;39.93
54512;BME280;40419;47.438;19.026;2023-04-26T13:18:28;99605.19;;;11.87;38.95